sensor_id;sensor_type;location;lat;lon;timestamp;P1;durP1;ratioP1;P2;durP2;ratioP2
79375;SDS011;68846;53.150;18.136;2023-05-10T00:00:28;6.90;;;3.60;;
79375;SDS011;68846;53.150;18.136;2023-05-10T00:03:08;6.10;;;3.50;;
79375;SDS011;68846;53.150;18.136;2023-05-10T00:05:34;5.80;;;3.80;;
79375;SDS011;68846;53.150;18.136;2023-05-10T00:08:00;4.30;;;3.20;;
79375;SDS011;68846;53.150;18.136;2023-05-10T00:10:26;8.00;;;3.30;;
79375;SDS011;68846;53.150;18.136;2023-05-10T00:12:53;7.60;;;3.10;;
79375;SDS011;68846;53.150;18.136;2023-05-10T00:15:19;5.70;;;3.40;;
79375;SDS011;68846;53.150;18.136;2023-05-10T00:17:45;5.20;;;3.50;;
79375;SDS011;68846;53.150;18.136;2023-05-10T00:20:11;5.90;;;3.10;;
79375;SDS011;68846;53.150;18.136;2023-05-10T00:22:37;6.10;;;3.40;;
79375;SDS011;68846;53.150;18.136;2023-05-10T00:25:04;6.60;;;3.60;;
79375;SDS011;68846;53.150;18.136;2023-05-10T00:27:32;6.10;;;3.10;;
79375;SDS011;68846;53.150;18.136;2023-05-10T00:29:58;7.20;;;3.40;;
79375;SDS011;68846;53.150;18.136;2023-05-10T00:32:24;4.80;;;3.30;;
79375;SDS011;68846;53.150;18.136;2023-05-10T00:34:50;6.20;;;3.60;;
79375;SDS011;68846;53.150;18.136;2023-05-10T00:37:16;5.90;;;3.50;;
79375;SDS011;68846;53.150;18.136;2023-05-10T00:39:42;6.60;;;3.70;;
79375;SDS011;68846;53.150;18.136;2023-05-10T00:42:08;4.90;;;3.30;;
79375;SDS011;68846;53.150;18.136;2023-05-10T00:44:35;6.70;;;3.60;;
79375;SDS011;68846;53.150;18.136;2023-05-10T00:47:01;4.90;;;3.20;;
79375;SDS011;68846;53.150;18.136;2023-05-10T00:49:27;4.60;;;3.40;;
79375;SDS011;68846;53.150;18.136;2023-05-10T00:51:54;5.80;;;3.50;;
79375;SDS011;68846;53.150;18.136;2023-05-10T00:54:20;6.10;;;4.10;;
79375;SDS011;68846;53.150;18.136;2023-05-10T00:56:47;7.90;;;3.70;;
79375;SDS011;68846;53.150;18.136;2023-05-10T00:59:15;5.00;;;3.00;;
79375;SDS011;68846;53.150;18.136;2023-05-10T01:01:43;4.80;;;3.20;;
79375;SDS011;68846;53.150;18.136;2023-05-10T01:06:38;5.00;;;3.20;;
79375;SDS011;68846;53.150;18.136;2023-05-10T01:09:06;5.90;;;3.30;;
79375;SDS011;68846;53.150;18.136;2023-05-10T01:11:36;5.90;;;3.30;;
79375;SDS011;68846;53.150;18.136;2023-05-10T01:14:03;6.00;;;3.50;;
79375;SDS011;68846;53.150;18.136;2023-05-10T01:16:35;7.30;;;3.50;;
79375;SDS011;68846;53.150;18.136;2023-05-10T01:19:11;6.10;;;3.30;;
79375;SDS011;68846;53.150;18.136;2023-05-10T01:35:19;4.70;;;3.20;;
79375;SDS011;68846;53.150;18.136;2023-05-10T01:38:10;5.80;;;3.50;;
79375;SDS011;68846;53.150;18.136;2023-05-10T01:43:42;5.60;;;3.00;;
79375;SDS011;68846;53.150;18.136;2023-05-10T01:46:22;6.80;;;3.20;;
79375;SDS011;68846;53.150;18.136;2023-05-10T01:48:54;5.70;;;3.30;;
79375;SDS011;68846;53.150;18.136;2023-05-10T01:51:25;7.30;;;3.40;;
79375;SDS011;68846;53.150;18.136;2023-05-10T01:53:54;4.50;;;3.10;;
79375;SDS011;68846;53.150;18.136;2023-05-10T01:56:26;5.40;;;2.90;;
79375;SDS011;68846;53.150;18.136;2023-05-10T01:58:55;4.40;;;3.00;;
79375;SDS011;68846;53.150;18.136;2023-05-10T02:01:25;4.30;;;3.20;;
79375;SDS011;68846;53.150;18.136;2023-05-10T02:03:52;6.00;;;3.10;;
79375;SDS011;68846;53.150;18.136;2023-05-10T02:06:19;5.10;;;2.90;;
79375;SDS011;68846;53.150;18.136;2023-05-10T02:08:47;6.70;;;3.40;;
79375;SDS011;68846;53.150;18.136;2023-05-10T02:11:15;5.30;;;3.30;;
79375;SDS011;68846;53.150;18.136;2023-05-10T02:13:44;4.00;;;3.10;;
79375;SDS011;68846;53.150;18.136;2023-05-10T02:16:13;4.60;;;3.20;;
79375;SDS011;68846;53.150;18.136;2023-05-10T02:18:41;5.20;;;2.90;;
79375;SDS011;68846;53.150;18.136;2023-05-10T02:21:08;5.10;;;3.30;;
79375;SDS011;68846;53.150;18.136;2023-05-10T02:23:38;5.80;;;3.10;;
79375;SDS011;68846;53.150;18.136;2023-05-10T02:26:04;5.90;;;3.10;;
79375;SDS011;68846;53.150;18.136;2023-05-10T02:28:32;4.50;;;3.10;;
79375;SDS011;68846;53.150;18.136;2023-05-10T02:30:59;5.00;;;3.10;;
79375;SDS011;68846;53.150;18.136;2023-05-10T02:33:27;5.30;;;3.10;;
79375;SDS011;68846;53.150;18.136;2023-05-10T02:35:55;5.40;;;3.50;;
79375;SDS011;68846;53.150;18.136;2023-05-10T02:38:22;4.20;;;2.60;;
79375;SDS011;68846;53.150;18.136;2023-05-10T02:40:50;5.80;;;2.90;;
79375;SDS011;68846;53.150;18.136;2023-05-10T02:45:44;4.00;;;2.90;;
79375;SDS011;68846;53.150;18.136;2023-05-10T02:48:13;5.40;;;3.20;;
79375;SDS011;68846;53.150;18.136;2023-05-10T02:50:39;5.90;;;3.10;;
79375;SDS011;68846;53.150;18.136;2023-05-10T02:53:10;4.70;;;3.00;;
79375;SDS011;68846;53.150;18.136;2023-05-10T02:55:45;6.70;;;3.60;;
79375;SDS011;68846;53.150;18.136;2023-05-10T02:58:16;5.30;;;3.10;;
79375;SDS011;68846;53.150;18.136;2023-05-10T03:00:45;4.40;;;3.20;;
79375;SDS011;68846;53.150;18.136;2023-05-10T03:06:04;8.20;;;3.50;;
79375;SDS011;68846;53.150;18.136;2023-05-10T03:08:30;5.40;;;3.00;;
79375;SDS011;68846;53.150;18.136;2023-05-10T03:13:51;4.50;;;2.90;;
79375;SDS011;68846;53.150;18.136;2023-05-10T03:16:34;4.40;;;3.10;;
79375;SDS011;68846;53.150;18.136;2023-05-10T03:19:09;5.40;;;2.90;;
79375;SDS011;68846;53.150;18.136;2023-05-10T03:21:43;4.30;;;3.30;;
79375;SDS011;68846;53.150;18.136;2023-05-10T03:24:14;4.20;;;3.10;;
79375;SDS011;68846;53.150;18.136;2023-05-10T03:26:43;4.30;;;3.70;;
79375;SDS011;68846;53.150;18.136;2023-05-10T03:29:14;5.10;;;3.00;;
79375;SDS011;68846;53.150;18.136;2023-05-10T03:31:41;5.40;;;2.90;;
79375;SDS011;68846;53.150;18.136;2023-05-10T03:34:08;8.20;;;4.00;;
79375;SDS011;68846;53.150;18.136;2023-05-10T03:36:35;5.80;;;3.50;;
79375;SDS011;68846;53.150;18.136;2023-05-10T03:39:01;4.10;;;3.00;;
79375;SDS011;68846;53.150;18.136;2023-05-10T03:41:28;7.70;;;3.00;;
79375;SDS011;68846;53.150;18.136;2023-05-10T03:43:55;6.70;;;3.90;;
79375;SDS011;68846;53.150;18.136;2023-05-10T03:46:21;7.30;;;3.50;;
79375;SDS011;68846;53.150;18.136;2023-05-10T03:48:47;8.40;;;3.90;;
79375;SDS011;68846;53.150;18.136;2023-05-10T03:51:13;4.80;;;3.50;;
79375;SDS011;68846;53.150;18.136;2023-05-10T03:53:39;6.10;;;3.10;;
79375;SDS011;68846;53.150;18.136;2023-05-10T03:56:06;6.20;;;3.20;;
79375;SDS011;68846;53.150;18.136;2023-05-10T03:58:32;5.00;;;3.40;;
79375;SDS011;68846;53.150;18.136;2023-05-10T04:00:58;5.50;;;3.50;;
79375;SDS011;68846;53.150;18.136;2023-05-10T04:03:24;6.00;;;3.50;;
79375;SDS011;68846;53.150;18.136;2023-05-10T04:06:00;6.40;;;3.30;;
79375;SDS011;68846;53.150;18.136;2023-05-10T04:08:27;7.60;;;3.70;;
79375;SDS011;68846;53.150;18.136;2023-05-10T04:10:54;4.40;;;3.10;;
79375;SDS011;68846;53.150;18.136;2023-05-10T04:13:20;5.10;;;3.10;;
79375;SDS011;68846;53.150;18.136;2023-05-10T04:15:46;4.60;;;2.80;;
79375;SDS011;68846;53.150;18.136;2023-05-10T04:18:12;5.00;;;3.00;;
79375;SDS011;68846;53.150;18.136;2023-05-10T04:20:38;7.00;;;3.50;;
79375;SDS011;68846;53.150;18.136;2023-05-10T04:23:05;5.50;;;3.20;;
79375;SDS011;68846;53.150;18.136;2023-05-10T04:25:33;6.10;;;3.50;;
79375;SDS011;68846;53.150;18.136;2023-05-10T04:28:00;4.60;;;3.20;;
79375;SDS011;68846;53.150;18.136;2023-05-10T04:30:26;5.00;;;3.20;;
79375;SDS011;68846;53.150;18.136;2023-05-10T04:32:54;6.10;;;3.60;;
79375;SDS011;68846;53.150;18.136;2023-05-10T04:35:20;5.20;;;3.10;;
79375;SDS011;68846;53.150;18.136;2023-05-10T04:37:47;8.20;;;3.40;;
79375;SDS011;68846;53.150;18.136;2023-05-10T04:40:14;5.00;;;3.60;;
79375;SDS011;68846;53.150;18.136;2023-05-10T04:42:40;6.70;;;3.40;;
79375;SDS011;68846;53.150;18.136;2023-05-10T04:45:09;5.40;;;3.40;;
79375;SDS011;68846;53.150;18.136;2023-05-10T04:47:35;4.00;;;3.20;;
79375;SDS011;68846;53.150;18.136;2023-05-10T04:50:03;8.70;;;3.50;;
79375;SDS011;68846;53.150;18.136;2023-05-10T04:52:30;6.80;;;3.10;;
79375;SDS011;68846;53.150;18.136;2023-05-10T04:54:56;6.10;;;3.60;;
79375;SDS011;68846;53.150;18.136;2023-05-10T04:57:22;6.00;;;3.20;;
79375;SDS011;68846;53.150;18.136;2023-05-10T04:59:48;17.80;;;5.60;;
79375;SDS011;68846;53.150;18.136;2023-05-10T05:02:14;8.50;;;3.60;;
79375;SDS011;68846;53.150;18.136;2023-05-10T05:04:40;5.60;;;3.00;;
79375;SDS011;68846;53.150;18.136;2023-05-10T05:07:06;15.10;;;4.30;;
79375;SDS011;68846;53.150;18.136;2023-05-10T05:09:33;6.40;;;3.50;;
79375;SDS011;68846;53.150;18.136;2023-05-10T05:12:00;6.50;;;3.10;;
79375;SDS011;68846;53.150;18.136;2023-05-10T05:14:26;7.10;;;4.10;;
79375;SDS011;68846;53.150;18.136;2023-05-10T05:16:52;7.80;;;4.30;;
79375;SDS011;68846;53.150;18.136;2023-05-10T05:19:18;6.70;;;3.30;;
79375;SDS011;68846;53.150;18.136;2023-05-10T05:21:44;6.60;;;3.70;;
79375;SDS011;68846;53.150;18.136;2023-05-10T05:24:11;4.90;;;3.60;;
79375;SDS011;68846;53.150;18.136;2023-05-10T05:26:38;8.20;;;3.60;;
79375;SDS011;68846;53.150;18.136;2023-05-10T05:29:04;4.70;;;3.20;;
79375;SDS011;68846;53.150;18.136;2023-05-10T05:31:30;7.20;;;3.50;;
79375;SDS011;68846;53.150;18.136;2023-05-10T05:33:57;4.80;;;3.20;;
79375;SDS011;68846;53.150;18.136;2023-05-10T05:36:23;6.80;;;3.00;;
79375;SDS011;68846;53.150;18.136;2023-05-10T05:38:49;5.30;;;3.00;;
79375;SDS011;68846;53.150;18.136;2023-05-10T05:41:16;4.70;;;3.00;;
79375;SDS011;68846;53.150;18.136;2023-05-10T05:43:42;6.50;;;3.60;;
79375;SDS011;68846;53.150;18.136;2023-05-10T05:46:08;6.00;;;3.00;;
79375;SDS011;68846;53.150;18.136;2023-05-10T05:48:34;4.50;;;2.80;;
79375;SDS011;68846;53.150;18.136;2023-05-10T05:51:01;5.60;;;3.20;;
79375;SDS011;68846;53.150;18.136;2023-05-10T05:53:27;8.60;;;5.80;;
79375;SDS011;68846;53.150;18.136;2023-05-10T05:55:53;9.80;;;6.20;;
79375;SDS011;68846;53.150;18.136;2023-05-10T05:58:21;12.10;;;7.50;;
79375;SDS011;68846;53.150;18.136;2023-05-10T06:03:14;8.60;;;5.50;;
79375;SDS011;68846;53.150;18.136;2023-05-10T06:05:41;6.00;;;4.30;;
79375;SDS011;68846;53.150;18.136;2023-05-10T06:08:07;6.50;;;3.40;;
79375;SDS011;68846;53.150;18.136;2023-05-10T06:10:33;6.60;;;3.70;;
79375;SDS011;68846;53.150;18.136;2023-05-10T06:13:00;5.40;;;2.70;;
79375;SDS011;68846;53.150;18.136;2023-05-10T06:15:27;5.40;;;2.30;;
79375;SDS011;68846;53.150;18.136;2023-05-10T06:17:53;4.30;;;2.50;;
79375;SDS011;68846;53.150;18.136;2023-05-10T06:20:19;5.90;;;3.00;;
79375;SDS011;68846;53.150;18.136;2023-05-10T06:22:45;5.00;;;2.30;;
79375;SDS011;68846;53.150;18.136;2023-05-10T06:25:12;7.20;;;2.60;;
79375;SDS011;68846;53.150;18.136;2023-05-10T06:27:38;6.40;;;2.70;;
79375;SDS011;68846;53.150;18.136;2023-05-10T06:30:04;5.50;;;2.90;;
79375;SDS011;68846;53.150;18.136;2023-05-10T06:32:31;4.90;;;2.40;;
79375;SDS011;68846;53.150;18.136;2023-05-10T06:34:57;6.00;;;2.30;;
79375;SDS011;68846;53.150;18.136;2023-05-10T06:37:23;4.20;;;2.40;;
79375;SDS011;68846;53.150;18.136;2023-05-10T06:39:50;4.40;;;2.20;;
79375;SDS011;68846;53.150;18.136;2023-05-10T06:42:16;4.10;;;2.40;;
79375;SDS011;68846;53.150;18.136;2023-05-10T06:44:45;6.40;;;2.50;;
79375;SDS011;68846;53.150;18.136;2023-05-10T06:47:12;4.80;;;2.30;;
79375;SDS011;68846;53.150;18.136;2023-05-10T06:49:39;3.60;;;2.10;;
79375;SDS011;68846;53.150;18.136;2023-05-10T06:54:32;4.80;;;2.10;;
79375;SDS011;68846;53.150;18.136;2023-05-10T06:56:59;5.80;;;2.30;;
79375;SDS011;68846;53.150;18.136;2023-05-10T06:59:26;3.20;;;2.30;;
79375;SDS011;68846;53.150;18.136;2023-05-10T07:01:52;4.00;;;2.30;;
79375;SDS011;68846;53.150;18.136;2023-05-10T07:04:19;6.20;;;2.50;;
79375;SDS011;68846;53.150;18.136;2023-05-10T07:06:46;3.20;;;2.10;;
79375;SDS011;68846;53.150;18.136;2023-05-10T07:09:12;4.60;;;2.10;;
79375;SDS011;68846;53.150;18.136;2023-05-10T07:11:39;5.60;;;2.40;;
79375;SDS011;68846;53.150;18.136;2023-05-10T07:14:05;7.40;;;2.50;;
79375;SDS011;68846;53.150;18.136;2023-05-10T07:16:32;5.90;;;2.10;;
79375;SDS011;68846;53.150;18.136;2023-05-10T07:18:59;7.00;;;2.30;;
79375;SDS011;68846;53.150;18.136;2023-05-10T07:21:26;3.30;;;1.90;;
79375;SDS011;68846;53.150;18.136;2023-05-10T07:23:54;5.30;;;2.80;;
79375;SDS011;68846;53.150;18.136;2023-05-10T07:26:21;4.40;;;2.20;;
79375;SDS011;68846;53.150;18.136;2023-05-10T07:28:48;6.50;;;2.20;;
79375;SDS011;68846;53.150;18.136;2023-05-10T07:31:14;3.50;;;2.10;;
79375;SDS011;68846;53.150;18.136;2023-05-10T07:33:42;4.20;;;2.10;;
79375;SDS011;68846;53.150;18.136;2023-05-10T07:38:35;4.00;;;2.20;;
79375;SDS011;68846;53.150;18.136;2023-05-10T07:41:02;2.90;;;2.10;;
79375;SDS011;68846;53.150;18.136;2023-05-10T07:43:29;6.50;;;2.90;;
79375;SDS011;68846;53.150;18.136;2023-05-10T07:45:55;3.30;;;2.20;;
79375;SDS011;68846;53.150;18.136;2023-05-10T07:48:23;3.60;;;2.10;;
79375;SDS011;68846;53.150;18.136;2023-05-10T07:50:50;3.20;;;1.70;;
79375;SDS011;68846;53.150;18.136;2023-05-10T07:53:16;3.40;;;1.90;;
79375;SDS011;68846;53.150;18.136;2023-05-10T07:55:44;3.00;;;2.00;;
79375;SDS011;68846;53.150;18.136;2023-05-10T07:58:15;5.20;;;1.80;;
79375;SDS011;68846;53.150;18.136;2023-05-10T08:00:41;6.40;;;2.80;;
79375;SDS011;68846;53.150;18.136;2023-05-10T08:03:07;6.90;;;1.90;;
79375;SDS011;68846;53.150;18.136;2023-05-10T08:05:33;10.80;;;2.20;;
79375;SDS011;68846;53.150;18.136;2023-05-10T08:08:00;4.60;;;1.90;;
79375;SDS011;68846;53.150;18.136;2023-05-10T08:10:26;5.80;;;1.90;;
79375;SDS011;68846;53.150;18.136;2023-05-10T08:12:52;7.50;;;1.90;;
79375;SDS011;68846;53.150;18.136;2023-05-10T08:15:19;5.50;;;1.90;;
79375;SDS011;68846;53.150;18.136;2023-05-10T08:17:45;3.90;;;2.20;;
79375;SDS011;68846;53.150;18.136;2023-05-10T08:20:12;9.40;;;2.10;;
79375;SDS011;68846;53.150;18.136;2023-05-10T08:22:42;4.20;;;2.00;;
79375;SDS011;68846;53.150;18.136;2023-05-10T08:25:08;5.50;;;1.90;;
79375;SDS011;68846;53.150;18.136;2023-05-10T08:27:34;2.00;;;1.70;;
79375;SDS011;68846;53.150;18.136;2023-05-10T08:30:01;3.50;;;1.70;;
79375;SDS011;68846;53.150;18.136;2023-05-10T08:32:27;5.40;;;1.90;;
79375;SDS011;68846;53.150;18.136;2023-05-10T08:34:53;6.10;;;1.80;;
79375;SDS011;68846;53.150;18.136;2023-05-10T08:37:19;4.20;;;1.70;;
79375;SDS011;68846;53.150;18.136;2023-05-10T08:39:46;9.10;;;1.70;;
79375;SDS011;68846;53.150;18.136;2023-05-10T08:42:13;7.10;;;1.60;;
79375;SDS011;68846;53.150;18.136;2023-05-10T08:44:45;3.00;;;1.80;;
79375;SDS011;68846;53.150;18.136;2023-05-10T08:47:15;6.00;;;2.00;;
79375;SDS011;68846;53.150;18.136;2023-05-10T08:49:44;3.10;;;1.60;;
79375;SDS011;68846;53.150;18.136;2023-05-10T08:52:14;3.70;;;1.60;;
79375;SDS011;68846;53.150;18.136;2023-05-10T08:54:43;5.00;;;2.00;;
79375;SDS011;68846;53.150;18.136;2023-05-10T08:57:10;5.70;;;1.80;;
79375;SDS011;68846;53.150;18.136;2023-05-10T08:59:36;3.20;;;1.80;;
79375;SDS011;68846;53.150;18.136;2023-05-10T09:02:05;2.80;;;1.80;;
79375;SDS011;68846;53.150;18.136;2023-05-10T09:04:33;2.40;;;1.80;;
79375;SDS011;68846;53.150;18.136;2023-05-10T09:06:59;3.80;;;1.90;;
79375;SDS011;68846;53.150;18.136;2023-05-10T09:09:25;6.90;;;1.70;;
79375;SDS011;68846;53.150;18.136;2023-05-10T09:11:53;4.70;;;1.50;;
79375;SDS011;68846;53.150;18.136;2023-05-10T09:14:20;4.60;;;1.90;;
79375;SDS011;68846;53.150;18.136;2023-05-10T09:16:46;3.60;;;1.80;;
79375;SDS011;68846;53.150;18.136;2023-05-10T09:19:12;6.30;;;1.80;;
79375;SDS011;68846;53.150;18.136;2023-05-10T09:21:39;3.80;;;1.70;;
79375;SDS011;68846;53.150;18.136;2023-05-10T09:24:06;3.60;;;1.80;;
79375;SDS011;68846;53.150;18.136;2023-05-10T09:26:34;5.10;;;2.30;;
79375;SDS011;68846;53.150;18.136;2023-05-10T09:29:02;2.60;;;1.70;;
79375;SDS011;68846;53.150;18.136;2023-05-10T09:31:48;4.40;;;1.70;;
79375;SDS011;68846;53.150;18.136;2023-05-10T09:34:18;3.90;;;1.70;;
79375;SDS011;68846;53.150;18.136;2023-05-10T09:36:52;2.50;;;1.80;;
79375;SDS011;68846;53.150;18.136;2023-05-10T09:39:37;3.90;;;1.90;;
79375;SDS011;68846;53.150;18.136;2023-05-10T09:42:07;2.40;;;1.80;;
79375;SDS011;68846;53.150;18.136;2023-05-10T09:44:35;4.10;;;1.70;;
79375;SDS011;68846;53.150;18.136;2023-05-10T09:49:28;4.70;;;1.80;;
79375;SDS011;68846;53.150;18.136;2023-05-10T09:54:28;3.60;;;1.70;;
79375;SDS011;68846;53.150;18.136;2023-05-10T09:56:55;5.10;;;1.80;;
79375;SDS011;68846;53.150;18.136;2023-05-10T09:59:22;2.60;;;1.50;;
79375;SDS011;68846;53.150;18.136;2023-05-10T10:01:52;3.80;;;1.70;;
79375;SDS011;68846;53.150;18.136;2023-05-10T10:04:22;3.20;;;2.00;;
79375;SDS011;68846;53.150;18.136;2023-05-10T10:06:58;5.30;;;2.10;;
79375;SDS011;68846;53.150;18.136;2023-05-10T10:09:26;6.10;;;1.80;;
79375;SDS011;68846;53.150;18.136;2023-05-10T10:11:52;3.50;;;2.20;;
79375;SDS011;68846;53.150;18.136;2023-05-10T10:14:19;3.30;;;1.80;;
79375;SDS011;68846;53.150;18.136;2023-05-10T10:16:47;3.00;;;1.90;;
79375;SDS011;68846;53.150;18.136;2023-05-10T10:19:14;3.60;;;1.90;;
79375;SDS011;68846;53.150;18.136;2023-05-10T10:21:41;5.20;;;2.10;;
79375;SDS011;68846;53.150;18.136;2023-05-10T10:24:07;3.20;;;1.90;;
79375;SDS011;68846;53.150;18.136;2023-05-10T10:26:34;5.50;;;2.00;;
79375;SDS011;68846;53.150;18.136;2023-05-10T10:34:28;9.10;;;2.40;;
79375;SDS011;68846;53.150;18.136;2023-05-10T10:36:56;6.00;;;2.20;;
79375;SDS011;68846;53.150;18.136;2023-05-10T10:39:23;3.20;;;1.90;;
79375;SDS011;68846;53.150;18.136;2023-05-10T10:41:56;6.90;;;2.00;;
79375;SDS011;68846;53.150;18.136;2023-05-10T10:57:30;4.70;;;2.10;;
79375;SDS011;68846;53.150;18.136;2023-05-10T11:02:51;8.90;;;2.30;;
79375;SDS011;68846;53.150;18.136;2023-05-10T11:05:38;6.00;;;2.40;;
79375;SDS011;68846;53.150;18.136;2023-05-10T11:08:16;6.10;;;2.10;;
79375;SDS011;68846;53.150;18.136;2023-05-10T11:10:53;5.70;;;1.90;;
79375;SDS011;68846;53.150;18.136;2023-05-10T11:13:29;8.20;;;2.20;;
79375;SDS011;68846;53.150;18.136;2023-05-10T11:19:09;3.80;;;2.30;;
79375;SDS011;68846;53.150;18.136;2023-05-10T11:21:47;6.60;;;2.10;;
79375;SDS011;68846;53.150;18.136;2023-05-10T11:24:14;3.40;;;1.90;;
79375;SDS011;68846;53.150;18.136;2023-05-10T11:26:50;4.20;;;2.20;;
79375;SDS011;68846;53.150;18.136;2023-05-10T11:29:18;3.30;;;2.10;;
79375;SDS011;68846;53.150;18.136;2023-05-10T11:31:44;3.90;;;2.40;;
79375;SDS011;68846;53.150;18.136;2023-05-10T11:34:33;5.50;;;2.40;;
79375;SDS011;68846;53.150;18.136;2023-05-10T11:36:59;6.60;;;2.30;;
79375;SDS011;68846;53.150;18.136;2023-05-10T11:39:29;3.20;;;2.10;;
79375;SDS011;68846;53.150;18.136;2023-05-10T11:41:57;2.80;;;1.90;;
79375;SDS011;68846;53.150;18.136;2023-05-10T11:44:31;5.10;;;2.20;;
79375;SDS011;68846;53.150;18.136;2023-05-10T11:46:59;8.20;;;2.30;;
79375;SDS011;68846;53.150;18.136;2023-05-10T11:49:26;8.60;;;2.10;;
79375;SDS011;68846;53.150;18.136;2023-05-10T11:51:52;5.40;;;2.00;;
79375;SDS011;68846;53.150;18.136;2023-05-10T11:54:18;4.00;;;2.00;;
79375;SDS011;68846;53.150;18.136;2023-05-10T11:56:44;8.20;;;2.30;;
79375;SDS011;68846;53.150;18.136;2023-05-10T11:59:13;6.80;;;2.30;;
79375;SDS011;68846;53.150;18.136;2023-05-10T12:01:41;3.20;;;1.90;;
79375;SDS011;68846;53.150;18.136;2023-05-10T12:06:36;3.50;;;2.10;;
79375;SDS011;68846;53.150;18.136;2023-05-10T12:09:06;7.40;;;2.30;;
79375;SDS011;68846;53.150;18.136;2023-05-10T12:11:36;4.10;;;1.90;;
79375;SDS011;68846;53.150;18.136;2023-05-10T12:16:34;3.20;;;1.70;;
79375;SDS011;68846;53.150;18.136;2023-05-10T12:19:00;6.80;;;2.10;;
79375;SDS011;68846;53.150;18.136;2023-05-10T12:21:27;3.60;;;1.80;;
79375;SDS011;68846;53.150;18.136;2023-05-10T12:23:59;5.50;;;2.10;;
79375;SDS011;68846;53.150;18.136;2023-05-10T12:26:29;4.30;;;2.10;;
79375;SDS011;68846;53.150;18.136;2023-05-10T12:31:55;5.60;;;2.30;;
79375;SDS011;68846;53.150;18.136;2023-05-10T12:34:29;5.00;;;1.70;;
79375;SDS011;68846;53.150;18.136;2023-05-10T12:36:57;7.20;;;1.90;;
79375;SDS011;68846;53.150;18.136;2023-05-10T12:39:23;4.20;;;2.30;;
79375;SDS011;68846;53.150;18.136;2023-05-10T12:41:51;5.20;;;2.20;;
79375;SDS011;68846;53.150;18.136;2023-05-10T12:44:18;11.10;;;2.20;;
79375;SDS011;68846;53.150;18.136;2023-05-10T12:49:10;10.10;;;2.20;;
79375;SDS011;68846;53.150;18.136;2023-05-10T12:51:36;5.30;;;2.00;;
79375;SDS011;68846;53.150;18.136;2023-05-10T12:54:03;11.20;;;2.10;;
79375;SDS011;68846;53.150;18.136;2023-05-10T12:58:58;5.50;;;1.70;;
79375;SDS011;68846;53.150;18.136;2023-05-10T13:01:25;3.90;;;1.80;;
79375;SDS011;68846;53.150;18.136;2023-05-10T13:03:51;4.80;;;2.30;;
79375;SDS011;68846;53.150;18.136;2023-05-10T13:06:18;6.40;;;1.80;;
79375;SDS011;68846;53.150;18.136;2023-05-10T13:08:45;5.70;;;2.20;;
79375;SDS011;68846;53.150;18.136;2023-05-10T13:11:11;9.30;;;2.10;;
79375;SDS011;68846;53.150;18.136;2023-05-10T13:13:42;7.00;;;2.20;;
79375;SDS011;68846;53.150;18.136;2023-05-10T13:16:08;5.70;;;1.90;;
79375;SDS011;68846;53.150;18.136;2023-05-10T13:18:34;5.70;;;2.00;;
79375;SDS011;68846;53.150;18.136;2023-05-10T13:21:00;9.10;;;2.10;;
79375;SDS011;68846;53.150;18.136;2023-05-10T13:23:27;6.30;;;1.80;;
79375;SDS011;68846;53.150;18.136;2023-05-10T13:25:53;5.50;;;2.20;;
79375;SDS011;68846;53.150;18.136;2023-05-10T13:28:20;4.70;;;2.00;;
79375;SDS011;68846;53.150;18.136;2023-05-10T13:30:46;3.80;;;1.60;;
79375;SDS011;68846;53.150;18.136;2023-05-10T13:33:12;5.00;;;2.20;;
79375;SDS011;68846;53.150;18.136;2023-05-10T13:35:39;6.70;;;2.00;;
79375;SDS011;68846;53.150;18.136;2023-05-10T13:38:05;4.60;;;2.00;;
79375;SDS011;68846;53.150;18.136;2023-05-10T13:40:33;5.80;;;1.80;;
79375;SDS011;68846;53.150;18.136;2023-05-10T13:43:00;5.30;;;2.10;;
79375;SDS011;68846;53.150;18.136;2023-05-10T13:47:52;5.90;;;2.20;;
79375;SDS011;68846;53.150;18.136;2023-05-10T13:50:19;5.30;;;2.00;;
79375;SDS011;68846;53.150;18.136;2023-05-10T13:52:45;4.90;;;2.10;;
79375;SDS011;68846;53.150;18.136;2023-05-10T13:55:12;4.20;;;2.10;;
79375;SDS011;68846;53.150;18.136;2023-05-10T13:57:38;5.90;;;1.80;;
79375;SDS011;68846;53.150;18.136;2023-05-10T14:00:05;8.60;;;2.00;;
79375;SDS011;68846;53.150;18.136;2023-05-10T14:02:33;6.90;;;2.00;;
79375;SDS011;68846;53.150;18.136;2023-05-10T14:05:00;4.70;;;2.00;;
79375;SDS011;68846;53.150;18.136;2023-05-10T14:07:26;3.20;;;1.80;;
79375;SDS011;68846;53.150;18.136;2023-05-10T14:12:18;6.20;;;2.10;;
79375;SDS011;68846;53.150;18.136;2023-05-10T14:14:45;5.10;;;2.20;;
79375;SDS011;68846;53.150;18.136;2023-05-10T14:17:11;6.20;;;2.20;;
79375;SDS011;68846;53.150;18.136;2023-05-10T14:19:37;9.40;;;2.10;;
79375;SDS011;68846;53.150;18.136;2023-05-10T14:22:04;5.70;;;2.00;;
79375;SDS011;68846;53.150;18.136;2023-05-10T14:24:30;5.10;;;2.40;;
79375;SDS011;68846;53.150;18.136;2023-05-10T14:29:23;6.00;;;2.00;;
79375;SDS011;68846;53.150;18.136;2023-05-10T14:31:49;6.00;;;2.20;;
79375;SDS011;68846;53.150;18.136;2023-05-10T14:34:15;5.10;;;2.50;;
79375;SDS011;68846;53.150;18.136;2023-05-10T14:36:41;4.20;;;1.90;;
79375;SDS011;68846;53.150;18.136;2023-05-10T14:39:08;4.50;;;2.00;;
79375;SDS011;68846;53.150;18.136;2023-05-10T14:41:35;5.20;;;2.10;;
79375;SDS011;68846;53.150;18.136;2023-05-10T14:44:02;6.90;;;2.40;;
79375;SDS011;68846;53.150;18.136;2023-05-10T14:46:29;6.30;;;2.20;;
79375;SDS011;68846;53.150;18.136;2023-05-10T14:51:21;7.00;;;2.40;;
79375;SDS011;68846;53.150;18.136;2023-05-10T14:53:48;4.80;;;2.30;;
79375;SDS011;68846;53.150;18.136;2023-05-10T14:56:15;5.10;;;2.10;;
79375;SDS011;68846;53.150;18.136;2023-05-10T14:58:41;4.30;;;2.10;;
79375;SDS011;68846;53.150;18.136;2023-05-10T15:01:07;4.30;;;2.30;;
79375;SDS011;68846;53.150;18.136;2023-05-10T15:03:33;5.10;;;2.30;;
79375;SDS011;68846;53.150;18.136;2023-05-10T15:05:59;3.60;;;2.40;;
79375;SDS011;68846;53.150;18.136;2023-05-10T15:08:25;7.80;;;2.40;;
79375;SDS011;68846;53.150;18.136;2023-05-10T15:10:52;4.80;;;2.00;;
79375;SDS011;68846;53.150;18.136;2023-05-10T15:13:21;6.40;;;2.80;;
79375;SDS011;68846;53.150;18.136;2023-05-10T15:15:47;5.60;;;2.10;;
79375;SDS011;68846;53.150;18.136;2023-05-10T15:18:13;5.10;;;2.10;;
79375;SDS011;68846;53.150;18.136;2023-05-10T15:20:40;5.50;;;2.40;;
79375;SDS011;68846;53.150;18.136;2023-05-10T15:23:06;3.60;;;2.00;;
79375;SDS011;68846;53.150;18.136;2023-05-10T15:25:32;4.50;;;2.30;;
79375;SDS011;68846;53.150;18.136;2023-05-10T15:28:01;4.40;;;1.90;;
79375;SDS011;68846;53.150;18.136;2023-05-10T15:30:28;4.90;;;2.30;;
79375;SDS011;68846;53.150;18.136;2023-05-10T15:35:20;4.50;;;2.00;;
79375;SDS011;68846;53.150;18.136;2023-05-10T15:37:47;3.80;;;2.10;;
79375;SDS011;68846;53.150;18.136;2023-05-10T15:40:15;3.00;;;2.30;;
79375;SDS011;68846;53.150;18.136;2023-05-10T15:42:41;5.00;;;2.10;;
79375;SDS011;68846;53.150;18.136;2023-05-10T15:45:08;3.90;;;2.20;;
79375;SDS011;68846;53.150;18.136;2023-05-10T15:47:34;3.80;;;2.30;;
79375;SDS011;68846;53.150;18.136;2023-05-10T15:50:01;3.70;;;2.20;;
79375;SDS011;68846;53.150;18.136;2023-05-10T15:52:28;4.60;;;2.30;;
79375;SDS011;68846;53.150;18.136;2023-05-10T15:54:54;4.50;;;2.10;;
79375;SDS011;68846;53.150;18.136;2023-05-10T15:57:20;7.30;;;2.30;;
79375;SDS011;68846;53.150;18.136;2023-05-10T15:59:47;3.80;;;2.20;;
79375;SDS011;68846;53.150;18.136;2023-05-10T16:02:14;4.70;;;1.90;;
79375;SDS011;68846;53.150;18.136;2023-05-10T16:04:42;5.30;;;2.30;;